Time;durP1;ratioP1;P1;durP2;ratioP2;P2;SDS_P1;SDS_P2;PMS_P1;PMS_P2;Temp;Humidity;BMP_temperature;BMP_pressure;BME280_temperature;BME280_humidity;BME280_pressure;Samples;Min_cycle;Max_cycle;Signal;HPM_P1;HPM_P2
2024/01/31 00:01:24;;;;;;;;;;;;;;;6.54;54.14;102564.76;106005;1255;61314;-77
2024/01/31 00:03:52;;;;;;;;;;;;;;;6.57;54.04;102563.61;105924;1261;75081;-77
2024/01/31 00:06:26;;;;;;;;;;;;;;;6.56;54.34;102560.31;106008;1257;68685;-78
2024/01/31 00:09:00;;;;;;;;;;;;;;;6.51;54.28;102557.00;106185;1255;72937;-77
2024/01/31 14:12:36;;;;;;;;;;;;;;;11.24;40.16;102004.36;106153;1254;61809;-78
2024/01/31 14:15:10;;;;;;;;;;;;;;;11.17;40.32;102003.04;105983;1254;76847;-79
2024/01/31 14:17:44;;;;;;;;;;;;;;;11.13;40.30;102000.61;106007;1259;69654;-78
2024/01/31 14:20:17;;;;;;;;;;;;;;;11.12;40.30;102002.85;105922;1253;74920;-78
2024/01/31 14:22:51;;;;;;;;;;;;;;;11.02;40.55;102003.07;105886;1259;61564;-79
2024/01/31 14:25:45;;;;;;;;;;;;;;;11.00;40.38;102002.83;105989;1254;61381;-78
2024/01/31 14:28:12;;;;;;;;;;;;;;;11.04;40.49;102007.45;105908;1259;77221;-78
2024/01/31 14:30:46;;;;;;;;;;;;;;;11.00;40.43;102007.16;106473;1256;70293;-78
2024/01/31 14:33:20;;;;;;;;;;;;;;;10.85;40.52;102009.30;106075;1258;74951;-78
2024/01/31 14:35:54;;;;;;;;;;;;;;;10.71;40.77;102009.42;106007;1257;61451;-78
2024/01/31 14:38:21;;;;;;;;;;;;;;;10.65;40.92;102004.88;106120;1253;61898;-78
2024/01/31 14:40:55;;;;;;;;;;;;;;;10.22;41.44;102010.27;106025;1256;77042;-78
2024/01/31 14:43:29;;;;;;;;;;;;;;;9.83;42.23;102011.39;106006;1253;70732;-78
2024/01/31 14:46:03;;;;;;;;;;;;;;;10.09;41.83;102008.65;106894;1253;74549;-79
2024/01/31 14:48:31;;;;;;;;;;;;;;;10.06;42.06;102004.48;106205;1259;61509;-78
2024/01/31 14:51:05;;;;;;;;;;;;;;;9.61;42.87;102006.64;106266;1259;62182;-78
2024/01/31 14:53:38;;;;;;;;;;;;;;;9.73;43.03;102004.97;108808;1253;77291;-78
2024/01/31 14:56:05;;;;;;;;;;;;;;;9.78;42.96;102003.71;106844;1258;69222;-79
2024/01/31 14:58:34;;;;;;;;;;;;;;;9.75;43.19;102000.90;106205;1258;73847;-78
2024/01/31 15:01:09;;;;;;;;;;;;;;;9.75;43.12;101992.88;106282;1253;61916;-77
2024/01/31 15:03:42;;;;;;;;;;;;;;;9.74;43.53;101993.98;106563;1259;61225;-78
2024/01/31 15:06:10;;;;;;;;;;;;;;;9.58;43.75;101989.73;106241;1254;74706;-78
2024/01/31 15:08:38;;;;;;;;;;;;;;;9.51;43.97;101993.66;106534;1258;69635;-78
2024/01/31 15:11:11;;;;;;;;;;;;;;;9.14;44.84;101989.72;105982;1256;75059;-78
2024/01/31 15:13:45;;;;;;;;;;;;;;;9.24;44.97;101988.70;105834;1258;61266;-77
2024/01/31 15:16:13;;;;;;;;;;;;;;;9.47;44.58;101985.11;106040;1259;62159;-77
2024/01/31 15:18:41;;;;;;;;;;;;;;;9.52;44.68;101985.92;105959;1253;75747;-77
2024/01/31 15:21:09;;;;;;;;;;;;;;;9.55;44.62;101991.04;106035;1259;71097;-78
2024/01/31 15:23:37;;;;;;;;;;;;;;;9.57;44.80;101995.11;105891;1254;73462;-77
2024/01/31 15:26:09;;;;;;;;;;;;;;;9.58;44.76;102002.95;106116;1253;61868;-77
2024/01/31 15:28:43;;;;;;;;;;;;;;;9.60;44.85;102004.69;106248;1259;61686;-78
2024/01/31 15:31:18;;;;;;;;;;;;;;;9.59;44.88;102006.79;106314;1254;74838;-78
2024/01/31 15:33:46;;;;;;;;;;;;;;;9.50;45.02;102005.48;106082;1254;70972;-77
2024/01/31 15:36:14;;;;;;;;;;;;;;;9.51;45.11;102003.77;105923;1260;74292;-78
2024/01/31 15:38:48;;;;;;;;;;;;;;;9.55;45.07;102005.94;106094;1259;61288;-77
2024/01/31 15:41:22;;;;;;;;;;;;;;;9.47;45.20;102005.19;106099;1254;62286;-78
2024/01/31 15:43:50;;;;;;;;;;;;;;;9.33;45.52;102005.89;106113;1259;77226;-79
2024/01/31 15:46:18;;;;;;;;;;;;;;;9.29;45.73;102010.24;106133;1256;68343;-77
2024/01/31 15:48:45;;;;;;;;;;;;;;;9.23;45.98;102006.05;106035;1259;75098;-78
2024/01/31 15:51:18;;;;;;;;;;;;;;;9.21;46.17;102005.88;106786;1255;61894;-77
2024/01/31 15:53:52;;;;;;;;;;;;;;;9.22;46.30;101998.59;106057;1254;61510;-77
2024/01/31 15:56:19;;;;;;;;;;;;;;;9.22;46.42;101995.16;106159;1256;76697;-77
2024/01/31 15:58:47;;;;;;;;;;;;;;;9.24;46.58;101997.55;105993;1253;70806;-77
2024/01/31 16:01:18;;;;;;;;;;;;;;;9.27;46.60;101994.31;106052;1254;75354;-77
2024/01/31 16:03:45;;;;;;;;;;;;;;;9.34;46.29;101999.97;106167;1256;61361;-78
2024/01/31 16:06:18;;;;;;;;;;;;;;;9.41;46.37;101999.77;106232;1259;61283;-78
2024/01/31 16:08:51;;;;;;;;;;;;;;;9.51;46.12;101994.75;106222;1254;76900;-78
2024/01/31 16:11:25;;;;;;;;;;;;;;;9.57;45.86;101995.77;106135;1256;70874;-78
2024/01/31 16:13:54;;;;;;;;;;;;;;;9.61;45.69;101995.44;106124;1257;72714;-78
2024/01/31 16:16:22;;;;;;;;;;;;;;;9.62;45.64;101993.73;106137;1257;61637;-77
2024/01/31 16:18:51;;;;;;;;;;;;;;;9.65;45.48;101990.41;106115;1259;61308;-78
2024/01/31 16:21:25;;;;;;;;;;;;;;;9.72;45.23;101988.21;106178;1253;76738;-77
2024/01/31 16:23:53;;;;;;;;;;;;;;;9.97;44.87;101980.90;106132;1259;69357;-77
2024/01/31 16:26:20;;;;;;;;;;;;;;;9.98;44.76;101977.73;106220;1259;75346;-77
2024/01/31 16:28:51;;;;;;;;;;;;;;;9.95;44.49;101974.77;106135;1254;62013;-77
2024/01/31 16:31:20;;;;;;;;;;;;;;;9.94;44.65;101968.61;106119;1254;61904;-78
2024/01/31 16:33:51;;;;;;;;;;;;;;;9.95;44.33;101968.13;106115;1253;76686;-78
2024/01/31 16:36:25;;;;;;;;;;;;;;;9.97;44.34;101966.38;106173;1254;71430;-78
2024/01/31 16:38:59;;;;;;;;;;;;;;;9.87;44.30;101963.73;106853;1254;73838;-77
2024/01/31 16:41:26;;;;;;;;;;;;;;;10.01;44.02;101956.30;106062;1259;61812;-77
2024/01/31 16:43:59;;;;;;;;;;;;;;;10.03;44.03;101948.14;106199;1254;62621;-77
2024/01/31 16:46:32;;;;;;;;;;;;;;;10.03;44.00;101938.42;106099;1253;75794;-78
2024/01/31 16:49:06;;;;;;;;;;;;;;;10.06;43.90;101937.30;105976;1259;69752;-78
2024/01/31 16:51:34;;;;;;;;;;;;;;;10.08;43.87;101940.29;105988;1259;76110;-79
2024/01/31 16:54:02;;;;;;;;;;;;;;;10.03;43.84;101940.63;106612;1255;61196;-80
2024/01/31 16:56:32;;;;;;;;;;;;;;;10.04;43.88;101939.72;106454;1253;62109;-77
2024/01/31 16:59:06;;;;;;;;;;;;;;;10.05;43.76;101942.35;106412;1253;75706;-76
2024/01/31 17:01:33;;;;;;;;;;;;;;;10.04;43.75;101934.84;106249;1253;71205;-78
2024/01/31 17:04:01;;;;;;;;;;;;;;;10.00;43.77;101935.18;106794;1258;73841;-79
2024/01/31 17:06:29;;;;;;;;;;;;;;;9.99;43.97;101931.41;107001;1253;60678;-78
2024/01/31 17:08:57;;;;;;;;;;;;;;;9.99;43.98;101933.42;106085;1255;61164;-78
2024/01/31 17:11:30;;;;;;;;;;;;;;;10.06;43.57;101932.28;106146;1259;76997;-77
2024/01/31 17:14:01;;;;;;;;;;;;;;;10.04;43.63;101929.39;106232;1258;68639;-77
2024/01/31 17:16:40;;;;;;;;;;;;;;;9.99;43.73;101923.05;106280;1253;74863;-78
2024/01/31 17:19:08;;;;;;;;;;;;;;;10.11;43.65;101928.11;106296;1257;61388;-78
2024/01/31 17:21:39;;;;;;;;;;;;;;;10.10;43.61;101927.84;105975;1259;61148;-77
2024/01/31 17:24:06;;;;;;;;;;;;;;;10.10;43.63;101930.56;105960;1258;75740;-77
2024/01/31 17:26:37;;;;;;;;;;;;;;;10.04;43.71;101924.80;106055;1254;69674;-78
2024/01/31 17:29:11;;;;;;;;;;;;;;;9.98;43.72;101921.77;105928;1261;72739;-78
2024/01/31 17:31:38;;;;;;;;;;;;;;;9.96;43.89;101916.48;106246;1254;61324;-78
2024/01/31 17:34:06;;;;;;;;;;;;;;;10.02;43.85;101917.20;106382;1259;62135;-78
2024/01/31 17:36:38;;;;;;;;;;;;;;;10.05;43.73;101910.58;106485;1257;76960;-78
2024/01/31 17:39:06;;;;;;;;;;;;;;;10.10;43.58;101905.11;106829;1257;68664;-78
2024/01/31 17:41:38;;;;;;;;;;;;;;;10.03;43.74;101905.20;106321;1258;74967;-78
2024/01/31 17:44:11;;;;;;;;;;;;;;;9.96;43.64;101902.61;105826;1256;61167;-78
2024/01/31 17:46:45;;;;;;;;;;;;;;;9.94;43.83;101901.52;106190;1257;62107;-77
2024/01/31 17:49:12;;;;;;;;;;;;;;;9.91;43.85;101899.92;106197;1257;77362;-78
2024/01/31 17:51:40;;;;;;;;;;;;;;;9.86;44.03;101898.67;106327;1258;70368;-78
2024/01/31 17:54:11;;;;;;;;;;;;;;;9.85;43.94;101897.52;106169;1253;74091;-77
2024/01/31 17:56:45;;;;;;;;;;;;;;;9.84;44.13;101896.28;106082;1258;61841;-78
2024/01/31 17:59:13;;;;;;;;;;;;;;;9.87;44.17;101899.02;106007;1259;60919;-78
2024/01/31 18:01:45;;;;;;;;;;;;;;;9.92;44.22;101897.11;106141;1254;76956;-79
2024/01/31 18:04:19;;;;;;;;;;;;;;;9.85;44.45;101898.95;106089;1253;70060;-78
2024/01/31 18:06:52;;;;;;;;;;;;;;;9.86;44.36;101893.00;106231;1256;75122;-77
2024/01/31 18:09:20;;;;;;;;;;;;;;;9.84;44.45;101893.24;105935;1256;61571;-78
2024/01/31 18:11:48;;;;;;;;;;;;;;;9.78;44.54;101889.22;106252;1254;61299;-78
2024/01/31 18:14:22;;;;;;;;;;;;;;;9.69;45.00;101890.10;105861;1259;76948;-79
2024/01/31 18:16:56;;;;;;;;;;;;;;;9.68;44.91;101885.24;106186;1254;69503;-77
2024/01/31 18:19:28;;;;;;;;;;;;;;;9.67;44.75;101885.48;106652;1257;72907;-79
2024/01/31 18:22:04;;;;;;;;;;;;;;;9.60;44.85;101885.48;106048;1260;62157;-79
2024/01/31 18:24:32;;;;;;;;;;;;;;;9.57;44.87;101884.60;105974;1254;61230;-80
2024/01/31 18:27:01;;;;;;;;;;;;;;;9.46;45.15;101882.20;106507;1258;77029;-79
2024/01/31 18:29:34;;;;;;;;;;;;;;;9.37;45.47;101881.46;106393;1261;70136;-78
2024/01/31 18:32:08;;;;;;;;;;;;;;;9.33;45.61;101876.09;106541;1262;73663;-78
2024/01/31 18:34:43;;;;;;;;;;;;;;;9.37;45.63;101871.57;106860;1258;61297;-79
2024/01/31 18:37:17;;;;;;;;;;;;;;;9.30;45.79;101872.27;107044;1254;60923;-79
2024/01/31 18:39:49;;;;;;;;;;;;;;;9.22;45.90;101868.67;106950;1259;75907;-80
2024/01/31 18:42:21;;;;;;;;;;;;;;;9.19;45.93;101862.69;106480;1254;71075;-79
2024/01/31 18:44:54;;;;;;;;;;;;;;;9.17;46.18;101857.46;106731;1254;72861;-79
2024/01/31 18:47:28;;;;;;;;;;;;;;;9.19;46.16;101858.66;106616;1255;62877;-79
2024/01/31 18:50:01;;;;;;;;;;;;;;;9.22;46.26;101854.42;106500;1254;61875;-80
2024/01/31 18:52:33;;;;;;;;;;;;;;;9.20;46.35;101852.40;106799;1259;75746;-78
2024/01/31 18:55:07;;;;;;;;;;;;;;;9.19;46.59;101852.79;106573;1259;71109;-79
2024/01/31 18:57:40;;;;;;;;;;;;;;;9.25;46.80;101844.61;106797;1253;73926;-79
2024/01/31 19:00:14;;;;;;;;;;;;;;;9.37;46.55;101839.45;105991;1258;61630;-78
2024/01/31 19:02:47;;;;;;;;;;;;;;;9.43;46.50;101835.05;106871;1253;61245;-79
2024/01/31 19:05:23;;;;;;;;;;;;;;;9.37;46.60;101836.48;106524;1258;76242;-79
2024/01/31 19:07:55;;;;;;;;;;;;;;;9.32;46.58;101830.55;106066;1256;69570;-80
2024/01/31 19:10:27;;;;;;;;;;;;;;;9.32;46.62;101824.75;106950;1257;73707;-80
2024/01/31 19:13:00;;;;;;;;;;;;;;;9.32;46.66;101817.89;106816;1253;61606;-79
2024/01/31 19:15:34;;;;;;;;;;;;;;;9.25;46.90;101810.30;106751;1256;60695;-79
2024/01/31 19:18:09;;;;;;;;;;;;;;;9.28;46.88;101807.42;106759;1253;77306;-79
2024/01/31 19:20:41;;;;;;;;;;;;;;;9.34;46.73;101804.84;106680;1253;72456;-79
2024/01/31 19:23:15;;;;;;;;;;;;;;;9.37;46.66;101804.25;106623;1254;74788;-79
2024/01/31 19:25:48;;;;;;;;;;;;;;;9.37;46.91;101806.10;106744;1259;61132;-78
2024/01/31 19:28:21;;;;;;;;;;;;;;;9.35;46.90;101806.35;106747;1254;61356;-80
2024/01/31 19:30:54;;;;;;;;;;;;;;;9.36;46.88;101804.45;106403;1261;75913;-79
2024/01/31 19:33:22;;;;;;;;;;;;;;;9.48;46.69;101802.91;106481;1257;69824;-79
2024/01/31 19:35:54;;;;;;;;;;;;;;;9.51;46.52;101800.80;106432;1260;74695;-79
2024/01/31 19:38:29;;;;;;;;;;;;;;;9.57;46.50;101797.16;107098;1258;61657;-79
2024/01/31 19:41:03;;;;;;;;;;;;;;;9.75;46.13;101793.66;106533;1259;61346;-78
2024/01/31 19:43:30;;;;;;;;;;;;;;;9.76;45.80;101792.66;106138;1254;75758;-78
2024/01/31 19:45:58;;;;;;;;;;;;;;;9.73;45.98;101793.95;106102;1260;70635;-77
2024/01/31 19:48:30;;;;;;;;;;;;;;;9.71;45.81;101792.10;106754;1258;74698;-79
2024/01/31 19:50:58;;;;;;;;;;;;;;;9.63;45.97;101792.33;106816;1257;61498;-77
2024/01/31 19:53:31;;;;;;;;;;;;;;;9.64;45.93;101792.91;105981;1253;62143;-80
2024/01/31 19:56:05;;;;;;;;;;;;;;;9.69;45.91;101786.34;106824;1254;76918;-79
2024/01/31 19:58:38;;;;;;;;;;;;;;;9.68;46.04;101788.25;106778;1257;70887;-79
2024/01/31 20:01:06;;;;;;;;;;;;;;;9.68;46.07;101783.92;106502;1258;74844;-79
2024/01/31 20:03:34;;;;;;;;;;;;;;;9.73;45.98;101782.11;106696;1254;62107;-79
2024/01/31 20:06:08;;;;;;;;;;;;;;;9.68;46.10;101783.15;106410;1255;217701;-79
2024/01/31 20:08:36;;;;;;;;;;;;;;;9.67;46.09;101777.34;106781;1258;78232;-79
2024/01/31 20:11:11;;;;;;;;;;;;;;;9.69;46.15;101776.39;106456;1260;67762;-79
2024/01/31 20:13:38;;;;;;;;;;;;;;;9.60;46.54;101774.13;106564;1259;75081;-79
2024/01/31 20:16:15;;;;;;;;;;;;;;;9.54;46.69;101770.14;106746;1254;61368;-80
2024/01/31 20:18:48;;;;;;;;;;;;;;;9.59;46.48;101768.77;106835;1256;61732;-80
2024/01/31 20:21:17;;;;;;;;;;;;;;;9.88;46.18;101763.02;106877;1255;76797;-81
2024/01/31 20:23:54;;;;;;;;;;;;;;;10.02;45.84;101757.41;106513;1261;69997;-79
2024/01/31 20:26:22;;;;;;;;;;;;;;;9.99;45.75;101754.13;107011;1258;74725;-78
2024/01/31 20:28:50;;;;;;;;;;;;;;;9.91;46.08;101753.20;106694;1259;61362;-79
2024/01/31 20:31:23;;;;;;;;;;;;;;;9.94;45.90;101752.05;106543;1259;61854;-80
2024/01/31 20:33:52;;;;;;;;;;;;;;;9.92;46.02;101755.03;106853;1258;76367;-79
2024/01/31 20:36:20;;;;;;;;;;;;;;;9.89;46.01;101752.99;106890;1256;70706;-80
2024/01/31 20:38:47;;;;;;;;;;;;;;;9.94;46.12;101760.84;106620;1258;73768;-80
2024/01/31 20:41:26;;;;;;;;;;;;;;;9.92;46.01;101761.69;106861;1254;61407;-78
2024/01/31 20:43:54;;;;;;;;;;;;;;;9.90;46.16;101767.59;106628;1254;62655;-80
2024/01/31 20:46:22;;;;;;;;;;;;;;;9.85;46.17;101766.63;106806;1253;77376;-79
2024/01/31 20:48:50;;;;;;;;;;;;;;;9.80;46.44;101768.17;106687;1254;70991;-79
2024/01/31 20:51:18;;;;;;;;;;;;;;;9.76;46.50;101762.46;106572;1254;74880;-80
2024/01/31 20:53:51;;;;;;;;;;;;;;;9.71;46.66;101760.21;106558;1259;61302;-79
2024/01/31 20:56:22;;;;;;;;;;;;;;;9.64;46.66;101760.14;106853;1260;62082;-80
2024/01/31 20:59:00;;;;;;;;;;;;;;;9.55;46.97;101758.75;106026;1259;77014;-79
2024/01/31 21:01:27;;;;;;;;;;;;;;;9.54;46.90;101757.25;106237;1259;69989;-81
2024/01/31 21:03:55;;;;;;;;;;;;;;;9.56;47.00;101756.11;106455;1253;74074;-81
2024/01/31 21:06:23;;;;;;;;;;;;;;;9.56;46.96;101749.77;106654;1260;61382;-81
2024/01/31 21:08:51;;;;;;;;;;;;;;;9.53;47.00;101750.64;106743;1260;62138;-79
2024/01/31 21:11:28;;;;;;;;;;;;;;;9.55;46.98;101744.67;106686;1260;76868;-80
2024/01/31 21:14:08;;;;;;;;;;;;;;;9.48;46.98;101744.48;106883;1259;69914;-80
2024/01/31 21:16:48;;;;;;;;;;;;;;;9.40;47.28;101744.25;106620;1259;74840;-79
2024/01/31 21:19:27;;;;;;;;;;;;;;;9.35;47.32;101741.04;106651;1259;61186;-79
2024/01/31 21:22:07;;;;;;;;;;;;;;;9.29;47.39;101740.61;106857;1259;62129;-80
2024/01/31 21:24:47;;;;;;;;;;;;;;;9.25;47.51;101738.25;106733;1260;74638;-79
2024/01/31 21:27:27;;;;;;;;;;;;;;;9.24;47.68;101735.84;106556;1260;67124;-79
2024/01/31 21:30:07;;;;;;;;;;;;;;;9.26;47.78;101725.27;106746;1260;73820;-81
2024/01/31 21:32:35;;;;;;;;;;;;;;;9.31;47.70;101722.88;106692;1261;61237;-79
2024/01/31 21:35:14;;;;;;;;;;;;;;;9.33;47.69;101712.13;106551;1254;61269;-81
2024/01/31 21:37:55;;;;;;;;;;;;;;;9.33;47.71;101708.85;106598;1255;73463;-80
2024/01/31 21:40:34;;;;;;;;;;;;;;;9.36;47.61;101707.71;106530;1254;69506;-81
2024/01/31 21:43:14;;;;;;;;;;;;;;;9.38;47.59;101705.56;106862;1254;72137;-81
2024/01/31 21:45:54;;;;;;;;;;;;;;;9.36;47.70;101701.87;106529;1260;61382;-80
2024/01/31 21:48:37;;;;;;;;;;;;;;;9.36;47.63;101699.35;106654;1254;61321;-80
2024/01/31 21:51:17;;;;;;;;;;;;;;;9.37;47.33;101697.19;106665;1256;74583;-78
2024/01/31 21:53:57;;;;;;;;;;;;;;;9.39;47.35;101695.84;106641;1254;67299;-80
2024/01/31 21:56:37;;;;;;;;;;;;;;;9.40;47.26;101696.07;106786;1254;72982;-79
2024/01/31 21:59:16;;;;;;;;;;;;;;;9.35;47.34;101697.34;106617;1258;61350;-79
2024/01/31 22:01:56;;;;;;;;;;;;;;;9.32;47.35;101696.39;107382;1254;61272;-80
2024/01/31 22:04:36;;;;;;;;;;;;;;;9.30;47.19;101694.35;106661;1254;75956;-79
2024/01/31 22:07:22;;;;;;;;;;;;;;;9.23;47.13;101695.32;106641;1255;69034;-80
2024/01/31 22:10:01;;;;;;;;;;;;;;;9.19;47.18;101698.84;106727;1258;71444;-79
2024/01/31 22:12:41;;;;;;;;;;;;;;;9.08;47.13;101700.99;106599;1256;61362;-79
2024/01/31 22:15:21;;;;;;;;;;;;;;;8.95;47.14;101698.16;106494;1257;61365;-79
2024/01/31 22:18:01;;;;;;;;;;;;;;;8.90;47.27;101695.03;106258;1254;74668;-80
2024/01/31 22:20:41;;;;;;;;;;;;;;;8.80;47.34;101692.35;106629;1257;68681;-78
2024/01/31 22:23:20;;;;;;;;;;;;;;;8.64;47.61;101688.27;106740;1254;71466;-84
2024/01/31 22:26:00;;;;;;;;;;;;;;;8.47;48.03;101683.77;106567;1257;61387;-82
2024/01/31 22:28:39;;;;;;;;;;;;;;;8.40;48.21;101673.58;106916;1255;61426;-80
2024/01/31 22:31:08;;;;;;;;;;;;;;;8.39;48.22;101672.13;106533;1254;73822;-79
2024/01/31 22:33:48;;;;;;;;;;;;;;;8.27;48.64;101671.26;106416;1254;70547;-80
2024/01/31 22:36:28;;;;;;;;;;;;;;;8.28;49.10;101665.85;106519;1254;72660;-80
2024/01/31 22:39:08;;;;;;;;;;;;;;;8.34;49.14;101663.01;106482;1259;61356;-80
2024/01/31 22:41:47;;;;;;;;;;;;;;;8.29;49.45;101664.90;106758;1258;61350;-79
2024/01/31 22:44:27;;;;;;;;;;;;;;;8.42;49.73;101661.35;106745;1254;73437;-79
2024/01/31 22:47:07;;;;;;;;;;;;;;;8.64;49.57;101656.83;106501;1260;67312;-80
2024/01/31 22:49:46;;;;;;;;;;;;;;;8.73;49.46;101651.42;106688;1254;71153;-79
2024/01/31 22:52:26;;;;;;;;;;;;;;;8.74;49.72;101647.26;106365;1255;61122;-80
2024/01/31 22:55:06;;;;;;;;;;;;;;;8.83;49.83;101646.46;106438;1262;59302;-78
2024/01/31 22:57:46;;;;;;;;;;;;;;;8.95;49.85;101645.10;106513;1254;74595;-79
2024/01/31 23:00:25;;;;;;;;;;;;;;;9.09;49.67;101647.17;106684;1254;68281;-79
2024/01/31 23:03:05;;;;;;;;;;;;;;;9.06;49.97;101651.98;106569;1254;72781;-79
2024/01/31 23:05:45;;;;;;;;;;;;;;;9.13;49.95;101652.52;106744;1254;61357;-78
2024/01/31 23:08:25;;;;;;;;;;;;;;;9.34;49.57;101651.58;106473;1254;61296;-79
2024/01/31 23:11:04;;;;;;;;;;;;;;;9.49;49.47;101652.98;106614;1254;75427;-80
2024/01/31 23:13:44;;;;;;;;;;;;;;;9.54;49.47;101653.68;106052;1260;67133;-79
2024/01/31 23:16:24;;;;;;;;;;;;;;;9.71;49.17;101651.88;106426;1254;72774;-79
2024/01/31 23:19:04;;;;;;;;;;;;;;;9.54;49.42;101652.64;106641;1255;61538;-77
2024/01/31 23:21:47;;;;;;;;;;;;;;;9.54;49.58;101651.48;106121;1259;59357;-79
2024/01/31 23:24:27;;;;;;;;;;;;;;;9.67;49.25;101642.89;105959;1259;74711;-79
2024/01/31 23:27:06;;;;;;;;;;;;;;;9.71;49.15;101637.56;106537;1254;68885;-80
2024/01/31 23:29:46;;;;;;;;;;;;;;;9.75;48.98;101636.00;106671;1254;71241;-79
2024/01/31 23:32:20;;;;;;;;;;;;;;;9.82;48.98;101632.86;107774;1254;63084;-78
2024/01/31 23:34:59;;;;;;;;;;;;;;;9.93;48.67;101630.91;106639;1254;61210;-79
2024/01/31 23:37:39;;;;;;;;;;;;;;;9.88;48.69;101630.83;106743;1254;73496;-80
2024/01/31 23:40:19;;;;;;;;;;;;;;;9.92;48.67;101626.33;106534;1254;68438;-81
2024/01/31 23:42:58;;;;;;;;;;;;;;;9.92;48.70;101623.67;106625;1254;72716;-78
2024/01/31 23:45:39;;;;;;;;;;;;;;;9.94;48.61;101622.75;106439;1260;61229;-79
2024/01/31 23:48:19;;;;;;;;;;;;;;;10.00;48.55;101624.33;106497;1254;61198;-79
2024/01/31 23:50:59;;;;;;;;;;;;;;;10.02;48.51;101621.63;106647;1254;74694;-79
2024/01/31 23:53:38;;;;;;;;;;;;;;;10.07;48.36;101614.88;106658;1254;67589;-79
2024/01/31 23:56:18;;;;;;;;;;;;;;;10.05;48.33;101619.71;106548;1256;71541;-78
2024/01/31 23:58:58;;;;;;;;;;;;;;;10.01;48.42;101623.34;106546;1257;61234;-79
